• Join FlightAware (Why Join?)
  • Login
  • US Flag GB Flag 
17:24 EDT


 

Airport Tracker/Info


-or-


 

Live Flight TrackerFlight Track Log ✈ SWA1563 ✈ 20-Apr-2013 ✈ KHOU - KDAL

Flight Track Log - Related Links

Times and Time Zones

All times are in EDT time to prevent confusion due to time zone crossing. See the SWA1563 flight status page for this flight to view local times or setup timezone preferences in your user account.

Time Position Orientation Groundspeed Altitude Reporting Facility
EDT Latitude Longitude Course Direction KTS MPH feet Rate Location/Type
13:37 29.7089 -95.2658 North 227 261 3,000  Level Houston Center
13:38 29.7411 -95.2803 339° North 264 304 4,200 3,300 Climbing Houston Center
13:39 29.8214 -95.3250 334° Northwest 267 307 8,800 3,660 Climbing Houston Center
13:40 29.9022 -95.3489 346° North 298 343 11,800 3,240 Climbing Houston Center
13:41 29.9953 -95.3675 350° North 333 383 15,500 3,240 Climbing Houston Center
13:42 30.0950 -95.3886 350° North 355 409 18,500 2,700 Climbing Houston Center
13:43 30.1953 -95.4097 350° North 364 419 21,100 2,460 Climbing Houston Center
13:44 30.2997 -95.4300 350° North 376 433 23,600 2,580 Climbing Houston Center
13:45 30.4297 -95.4564 350° North 394 453 26,500 2,400 Climbing Houston Center
13:46 30.5400 -95.4781 350° North 400 460 28,600 1,980 Climbing Houston Center
13:47 30.6519 -95.5019 350° North 406 467 30,600 2,220 Climbing Houston Center
13:48 30.7606 -95.5267 349° North 406 467 33,200 1,620 Climbing Houston Center
13:49 30.8686 -95.5519 349° North 394 453 34,000 360 Climbing Houston Center
13:50 31.0003 -95.5806 349° North 396 456 34,000  Level Houston Center
13:51 31.1094 -95.6058 349° North 396 456 34,000 -240 Level Houston Center
13:52 31.2208 -95.6314 349° North 401 461 33,600 -720 Descending Houston Center
13:53 31.3011 -95.6483 350° North 402 463 32,800 -1,080 Descending Fort Worth Center
13:54 31.4019 -95.6925 340° North 391 450 31,800 -900 Descending Fort Worth Center
13:55 31.4883 -95.7469 332° Northwest 381 438 31,000 -900 Descending Fort Worth Center
13:56 31.5789 -95.8089 330° Northwest 381 438 30,100 -1,320 Descending Fort Worth Center
13:57 31.6717 -95.8731 330° Northwest 381 438 28,400 -2,100 Descending Fort Worth Center
13:58 31.7664 -95.9375 330° Northwest 387 445 25,900 -2,520 Descending Fort Worth Center
13:59 31.8525 -95.9947 331° Northwest 376 433 23,400 -2,400 Descending Fort Worth Center
14:00 31.9389 -96.0497 332° Northwest 357 411 21,200 -2,220 Descending Fort Worth Center
14:01 32.0186 -96.1025 331° Northwest 333 383 19,000 -2,100 Descending Fort Worth Center
14:02 32.0964 -96.1553 330° Northwest 322 371 17,100 -2,100 Descending Fort Worth Center
14:03 32.1806 -96.2131 330° Northwest 317 365 14,900 -2,220 Descending Fort Worth Center
14:04 32.2561 -96.2611 332° Northwest 322 371 12,700 -1,860 Descending Fort Worth Center
14:05 32.3358 -96.3094 333° Northwest 315 362 11,200 -1,380 Descending Fort Worth Center
14:06 32.4114 -96.3528 334° Northwest 309 356 10,000 -600 Descending Fort Worth Center
14:07 32.4806 -96.3964 332° Northwest 304 350 10,000 -480 Level Fort Worth Center
14:08 32.5542 -96.4372 335° Northwest 283 326 9,100 -1,200 Descending Fort Worth Center
14:09 32.6275 -96.4761 336° Northwest 283 326 7,700 -1,200 Descending Fort Worth Center
14:10 32.6944 -96.5100 337° Northwest 283 326 6,800 -1,020 Descending Fort Worth Center
14:11 32.7742 -96.5586 333° Northwest 283 326 5,700 -1,020 Descending Fort Worth Center
14:12 32.8183 -96.6272 307° West 278 320 4,800 -1,080 Descending Fort Worth Center
14:12 32.8333 -96.6667 294° West 287 330 4,300 -720 Descending Dallas / Fort Worth TRACON
14:13 32.8833 -96.7167 320° Northwest 248 285 3,900 -660 Descending Dallas / Fort Worth TRACON
14:14 32.9167 -96.7833 301° West 220 253 3,000 -540 Descending Dallas / Fort Worth TRACON
14:15 32.9500 -96.8333 308° West 211 243 2,900 -300 Descending Dallas / Fort Worth TRACON
14:16 32.9500 -96.9000 270° West 187 215 2,500 -540 Descending Dallas / Fort Worth TRACON
14:17 32.9000 -96.9167 196° South 166 191 1,900 -660 Descending Dallas / Fort Worth TRACON
14:18 32.8833 -96.9000 140° Southeast 129 148 1,200 -720 Descending Dallas / Fort Worth TRACON
14:20 32.8471 -96.8518 196° South  Level Estimated
14:27 32.8471 -96.8518 196° South  Level Estimated
14:28 32.8471 -96.8518 196° South  Level Estimated